createdAt,value
2022-08-03T00:02:20.199Z,100928.28
2022-08-03T00:04:49.026Z,100920.16
2022-08-03T00:07:17.594Z,100917.41
2022-08-03T00:09:46.091Z,100925.44
2022-08-03T00:12:14.573Z,100918.16
2022-08-03T00:14:43.153Z,100915.47
2022-08-03T00:17:12.905Z,100914.53
2022-08-03T00:19:41.165Z,100913.63
2022-08-03T00:22:09.360Z,100910.06
2022-08-03T00:24:37.752Z,100906.56
2022-08-03T00:27:06.038Z,100905.72
2022-08-03T00:29:34.421Z,100905.66
2022-08-03T00:32:24.805Z,100902.00
2022-08-03T00:34:57.732Z,100909.19
2022-08-03T00:37:41.489Z,100909.16
2022-08-03T00:40:12.390Z,100911.84
2022-08-03T00:42:48.923Z,100904.69
2022-08-03T00:45:17.110Z,100907.38
2022-08-03T00:47:46.857Z,100909.09
2022-08-03T00:50:15.402Z,100898.31
2022-08-03T00:52:43.995Z,100901.88
2022-08-03T00:55:12.584Z,100898.22
2022-08-03T00:57:40.829Z,100902.75
2022-08-03T01:00:11.884Z,100909.97
2022-08-03T01:02:40.977Z,100900.03
2022-08-03T01:05:11.841Z,100908.19
2022-08-03T01:07:48.623Z,100902.75
2022-08-03T01:10:25.906Z,100899.19
2022-08-03T01:13:00.760Z,100897.34
2022-08-03T01:15:37.327Z,100901.00
2022-08-03T01:18:13.317Z,100898.38
2022-08-03T01:20:47.491Z,100900.16
2022-08-03T01:23:49.185Z,100894.72
2022-08-03T01:26:44.095Z,100892.03
2022-08-03T01:29:33.973Z,100887.66
2022-08-03T01:32:59.700Z,100890.34
2022-08-03T01:35:01.444Z,100893.94
2022-08-03T01:37:36.339Z,100894.88
2022-08-03T01:40:09.250Z,100889.59
2022-08-03T01:42:38.127Z,100891.38
2022-08-03T01:45:10.056Z,100887.88
2022-08-03T01:47:39.195Z,100885.31
2022-08-03T01:50:09.821Z,100883.66
2022-08-03T01:52:41.385Z,100890.03
2022-08-03T01:55:10.997Z,100887.47
2022-08-03T01:58:05.720Z,100887.59
2022-08-03T02:00:30.952Z,100892.22
2022-08-03T02:02:59.941Z,100889.63
2022-08-03T02:05:29.600Z,100885.22
2022-08-03T02:07:58.205Z,100890.69
2022-08-03T02:10:35.613Z,100888.91
2022-08-03T02:13:06.409Z,100891.66
2022-08-03T02:15:38.047Z,100889.91
2022-08-03T02:18:08.865Z,100891.66
2022-08-03T02:20:39.041Z,100891.78
2022-08-03T02:23:07.616Z,100887.41
2022-08-03T02:25:39.911Z,100892.94
2022-08-03T02:28:11.538Z,100892.13
2022-08-03T02:30:45.162Z,100890.41
2022-08-03T02:33:20.856Z,100888.72
2022-08-03T02:35:49.595Z,100892.44
2022-08-03T02:38:22.188Z,100889.81
2022-08-03T02:40:52.229Z,100891.66
2022-08-03T02:43:24.253Z,100877.38
2022-08-03T02:45:55.529Z,100875.75
2022-08-03T02:48:27.895Z,100882.09
2022-08-03T02:50:58.125Z,100884.91
2022-08-03T02:53:28.335Z,100891.22
2022-08-03T02:55:57.822Z,100885.09
2022-08-03T02:58:27.004Z,100880.66
2022-08-03T03:00:57.389Z,100887.97
2022-08-03T03:03:28.255Z,100884.47
2022-08-03T03:06:00.487Z,100881.88
2022-08-03T03:08:34.224Z,100885.63
2022-08-03T03:11:03.016Z,100886.78
2022-08-03T03:13:32.181Z,100884.38
2022-08-03T03:16:04.934Z,100886.28
2022-08-03T03:18:35.227Z,100881.91
2022-08-03T03:21:04.737Z,100883.75
2022-08-03T03:23:36.421Z,100885.63
2022-08-03T03:26:04.536Z,100892.00
2022-08-03T03:28:33.659Z,100884.88
2022-08-03T03:31:02.965Z,100888.56
2022-08-03T03:33:31.154Z,100885.03
2022-08-03T03:35:59.889Z,100888.75
2022-08-03T03:38:28.257Z,100893.31
2022-08-03T03:40:56.480Z,100884.47
2022-08-03T03:43:25.108Z,100884.56
2022-08-03T03:45:53.966Z,100898.09
2022-08-03T03:48:23.246Z,100884.75
2022-08-03T03:50:51.320Z,100889.28
2022-08-03T03:53:19.494Z,100884.00
2022-08-03T03:55:58.900Z,100884.19
2022-08-03T03:58:31.743Z,100881.63
2022-08-03T04:00:59.627Z,100881.66
2022-08-03T04:03:29.037Z,100879.06
2022-08-03T04:06:29.295Z,100881.81
2022-08-03T04:09:15.106Z,100886.34
2022-08-03T04:11:48.690Z,100881.03
2022-08-03T04:14:20.552Z,100882.84
2022-08-03T04:16:51.099Z,100889.13
2022-08-03T04:19:27.243Z,100878.41
2022-08-03T04:21:58.720Z,100886.53
2022-08-03T04:24:31.848Z,100887.56
2022-08-03T04:27:01.913Z,100885.00
2022-08-03T04:29:33.213Z,100898.53
2022-08-03T04:32:03.047Z,100899.47
2022-08-03T04:34:32.663Z,100894.19
2022-08-03T04:37:03.931Z,100892.50
2022-08-03T04:39:33.756Z,100898.78
2022-08-03T04:42:08.933Z,100896.13
2022-08-03T04:44:38.606Z,100901.50
2022-08-03T04:47:06.577Z,100896.09
2022-08-03T04:49:37.241Z,100901.38
2022-08-03T04:52:06.006Z,100907.53
2022-08-03T04:54:40.665Z,100898.44
2022-08-03T04:57:08.548Z,100905.59
2022-08-03T04:59:39.101Z,100901.00
2022-08-03T05:02:09.028Z,100907.09
2022-08-03T05:04:40.852Z,100904.25
2022-08-03T05:07:12.460Z,100909.44
2022-08-03T05:09:50.575Z,100915.63
2022-08-03T05:12:20.804Z,100909.19
2022-08-03T05:14:48.593Z,100910.78
2022-08-03T05:17:16.412Z,100909.75
2022-08-03T05:19:45.562Z,100910.44
2022-08-03T05:22:13.702Z,100907.56
2022-08-03T05:24:41.574Z,100909.13
2022-08-03T05:27:09.385Z,100910.75
2022-08-03T05:29:37.233Z,100915.00
2022-08-03T05:32:08.305Z,100911.94
2022-08-03T05:34:36.498Z,100916.19
2022-08-03T05:37:05.669Z,100916.78
2022-08-03T05:39:33.451Z,100917.41
2022-08-03T05:42:01.704Z,100910.84
2022-08-03T05:44:30.640Z,100909.59
2022-08-03T05:46:58.572Z,100913.75
2022-08-03T05:49:26.461Z,100909.81
2022-08-03T05:52:00.034Z,100904.16
2022-08-03T05:54:56.763Z,100918.03
2022-08-03T05:57:25.910Z,100914.06
2022-08-03T05:59:55.556Z,100911.00
2022-08-03T06:02:26.224Z,100909.69
2022-08-03T06:04:54.043Z,100912.06
2022-08-03T06:07:22.165Z,100903.56
2022-08-03T06:10:33.310Z,100903.13
2022-08-03T06:12:41.282Z,100915.22
2022-08-03T06:15:11.478Z,100915.75
2022-08-03T06:17:47.262Z,100905.41
2022-08-03T06:20:16.816Z,100905.03
2022-08-03T06:22:50.874Z,100901.09
2022-08-03T06:25:21.406Z,100899.72
2022-08-03T06:27:49.311Z,100902.78
2022-08-03T06:30:21.319Z,100902.19
2022-08-03T06:32:51.915Z,100904.47
2022-08-03T06:35:21.054Z,100907.66
2022-08-03T06:37:50.329Z,100910.75
2022-08-03T06:40:24.527Z,100906.63
2022-08-03T06:42:52.604Z,100905.28
2022-08-03T06:45:20.567Z,100911.06
2022-08-03T06:47:49.120Z,100907.97
2022-08-03T06:50:22.939Z,100910.22
2022-08-03T06:52:53.617Z,100908.78
2022-08-03T06:55:22.876Z,100910.94
2022-08-03T06:57:50.858Z,100910.34
2022-08-03T07:00:19.064Z,100908.78
2022-08-03T07:02:47.271Z,100912.72
2022-08-03T07:05:16.191Z,100912.88
2022-08-03T07:07:45.048Z,100913.09
2022-08-03T07:10:12.998Z,100904.25
2022-08-03T07:12:55.800Z,100908.91
2022-08-03T07:15:54.287Z,100904.38
2022-08-03T07:18:12.781Z,100904.44
2022-08-03T07:20:40.884Z,100903.69
2022-08-03T07:23:09.876Z,100908.34
2022-08-03T07:25:39.848Z,100908.34
2022-08-03T07:28:09.352Z,100901.88
2022-08-03T07:30:37.173Z,100910.63
2022-08-03T07:33:05.076Z,100903.13
2022-08-03T07:35:32.945Z,100901.88
2022-08-03T07:38:00.757Z,100909.03
2022-08-03T07:40:31.997Z,100907.06
2022-08-03T07:43:00.201Z,100905.78
2022-08-03T07:45:29.537Z,100911.94
2022-08-03T07:47:57.338Z,100912.06
2022-08-03T07:50:25.345Z,100909.25
2022-08-03T07:52:56.001Z,100903.78
2022-08-03T07:55:25.695Z,100908.38
2022-08-03T07:58:09.297Z,100901.84
2022-08-03T08:00:38.870Z,100903.34
2022-08-03T08:03:06.743Z,100902.44
2022-08-03T08:05:34.936Z,100904.16
2022-08-03T08:08:03.101Z,100902.25
2022-08-03T08:10:32.757Z,100915.69
2022-08-03T08:13:01.060Z,100898.41
2022-08-03T08:15:29.025Z,100900.06
2022-08-03T08:18:01.083Z,100904.34
2022-08-03T08:20:31.782Z,100899.56
2022-08-03T08:23:01.889Z,100895.63
2022-08-03T08:25:32.406Z,100892.75
2022-08-03T08:28:29.831Z,100897.13
2022-08-03T08:30:51.415Z,100897.09
2022-08-03T08:33:23.251Z,100897.19
2022-08-03T08:35:53.585Z,100890.91
2022-08-03T08:38:21.484Z,100893.84
2022-08-03T08:40:50.554Z,100889.44
2022-08-03T08:43:18.453Z,100889.72
2022-08-03T08:45:46.931Z,100889.78
2022-08-03T08:48:16.161Z,100889.59
2022-08-03T08:50:46.367Z,100884.88
2022-08-03T08:53:18.289Z,100892.31
2022-08-03T08:55:59.097Z,100891.22
2022-08-03T08:58:31.032Z,100906.03
2022-08-03T09:00:59.123Z,100892.69
2022-08-03T09:03:29.937Z,100892.09
2022-08-03T09:06:01.071Z,100898.47
2022-08-03T09:08:29.842Z,100890.63
2022-08-03T09:10:57.817Z,100897.25
2022-08-03T09:13:26.295Z,100899.59
2022-08-03T09:16:15.454Z,100885.28
2022-08-03T09:18:45.269Z,100883.41
2022-08-03T09:21:32.289Z,100889.59
2022-08-03T09:24:04.735Z,100891.84
2022-08-03T09:26:34.904Z,100884.34
2022-08-03T09:29:09.723Z,100880.72
2022-08-03T09:31:44.738Z,100874.06
2022-08-03T09:34:14.496Z,100865.63
2022-08-03T09:36:45.855Z,100872.44
2022-08-03T09:39:15.546Z,100868.22
2022-08-03T09:41:45.774Z,100872.75
2022-08-03T09:44:24.379Z,100882.66
2022-08-03T09:46:55.990Z,100869.28
2022-08-03T09:49:24.823Z,100871.88
2022-08-03T09:52:30.004Z,100874.09
2022-08-03T09:54:44.263Z,100870.50
2022-08-03T09:57:23.857Z,100864.66
2022-08-03T09:59:55.977Z,100867.13
2022-08-03T10:02:41.160Z,100861.78
2022-08-03T10:05:17.753Z,100864.00
2022-08-03T10:07:50.660Z,100853.94
2022-08-03T10:10:31.160Z,100853.06
2022-08-03T10:13:01.270Z,100856.00
2022-08-03T10:16:22.239Z,100854.13
2022-08-03T10:18:17.441Z,100853.09
2022-08-03T10:20:50.586Z,100857.31
2022-08-03T10:23:21.621Z,100850.34
2022-08-03T10:25:53.772Z,100848.78
2022-08-03T10:28:23.466Z,100848.50
2022-08-03T10:30:53.921Z,100842.03
2022-08-03T10:33:49.729Z,100836.69
2022-08-03T10:36:16.476Z,100831.56
2022-08-03T10:38:52.647Z,100834.59
2022-08-03T10:41:21.870Z,100835.16
2022-08-03T10:43:55.418Z,100839.91
2022-08-03T10:46:23.380Z,100833.94
2022-08-03T10:48:53.908Z,100825.34
2022-08-03T10:51:22.728Z,100832.22
2022-08-03T10:53:54.951Z,100828.44
2022-08-03T10:57:03.472Z,100828.09
2022-08-03T11:00:03.626Z,100822.72
2022-08-03T11:03:03.331Z,100824.19
2022-08-03T11:05:33.429Z,100817.69
2022-08-03T11:08:22.283Z,100807.41
2022-08-03T11:10:53.194Z,100812.47
2022-08-03T11:13:23.679Z,100816.75
2022-08-03T11:16:00.131Z,100811.88
2022-08-03T11:18:31.173Z,100806.44
2022-08-03T11:21:01.128Z,100807.63
2022-08-03T11:24:04.463Z,100798.72
2022-08-03T11:26:33.944Z,100792.94
2022-08-03T11:29:30.038Z,100800.16
2022-08-03T11:31:58.503Z,100797.22
2022-08-03T11:34:26.491Z,100808.50
2022-08-03T11:37:28.808Z,100805.81
2022-08-03T11:40:02.865Z,100808.88
2022-08-03T11:42:46.974Z,100804.63
2022-08-03T11:45:16.130Z,100801.66
2022-08-03T11:47:50.451Z,100802.34
2022-08-03T11:50:21.395Z,100799.00
2022-08-03T11:52:50.753Z,100802.25
2022-08-03T11:55:21.898Z,100808.00
2022-08-03T11:59:15.143Z,100807.13
2022-08-03T12:00:40.540Z,100805.13
2022-08-03T12:03:10.571Z,100800.88
2022-08-03T12:05:52.115Z,100798.47
2022-08-03T12:08:32.345Z,100790.94
2022-08-03T12:11:03.028Z,100786.88
2022-08-03T12:14:44.423Z,100785.84
2022-08-03T12:16:29.203Z,100787.38
2022-08-03T12:18:58.105Z,100800.47
2022-08-03T12:21:26.054Z,100789.06
2022-08-03T12:24:00.187Z,100785.47
2022-08-03T12:26:29.887Z,100785.63
2022-08-03T12:28:59.321Z,100786.66
2022-08-03T12:31:27.340Z,100793.25
2022-08-03T12:34:04.089Z,100777.31
2022-08-03T12:36:33.631Z,100783.88
2022-08-03T12:39:03.889Z,100779.41
2022-08-03T12:41:34.212Z,100766.16
2022-08-03T12:44:04.545Z,100774.25
2022-08-03T12:46:34.502Z,100768.88
2022-08-03T12:49:08.405Z,100767.31
2022-08-03T12:51:38.454Z,100766.91
2022-08-03T12:54:07.307Z,100761.81
2022-08-03T12:56:35.823Z,100759.78
2022-08-03T12:59:32.239Z,100762.34
2022-08-03T13:02:04.644Z,100757.38
2022-08-03T13:04:38.001Z,100757.78
2022-08-03T13:07:12.711Z,100755.13
2022-08-03T13:09:44.241Z,100752.53
2022-08-03T13:12:13.658Z,100756.47
2022-08-03T13:14:43.930Z,100756.91
2022-08-03T13:17:11.915Z,100756.19
2022-08-03T13:19:41.075Z,100741.88
2022-08-03T13:22:12.814Z,100744.94
2022-08-03T13:24:40.650Z,100752.84
2022-08-03T13:28:02.539Z,100749.31
2022-08-03T13:29:57.885Z,100753.47
2022-08-03T13:32:26.024Z,100752.00
2022-08-03T13:34:53.866Z,100746.53
2022-08-03T13:37:22.010Z,100754.22
2022-08-03T13:39:59.868Z,100747.31
2022-08-03T13:42:30.430Z,100740.69
2022-08-03T13:45:00.398Z,100737.44
2022-08-03T13:47:28.539Z,100743.13
2022-08-03T13:50:01.646Z,100743.88
2022-08-03T13:52:32.167Z,100737.28
2022-08-03T13:55:00.320Z,100736.63
2022-08-03T13:58:02.873Z,100738.41
2022-08-03T14:00:27.513Z,100728.66
2022-08-03T14:03:16.152Z,100738.75
2022-08-03T14:05:44.565Z,100734.66
2022-08-03T14:08:13.423Z,100731.34
2022-08-03T14:10:43.963Z,100723.88
2022-08-03T14:13:14.463Z,100720.63
2022-08-03T14:15:50.284Z,100717.38
2022-08-03T14:18:28.594Z,100710.97
2022-08-03T14:21:06.010Z,100713.19
2022-08-03T14:23:35.522Z,100710.75
2022-08-03T14:26:03.347Z,100718.13
2022-08-03T14:28:31.205Z,100700.28
2022-08-03T14:31:15.266Z,100701.09
2022-08-03T14:33:58.376Z,100712.00
2022-08-03T14:36:27.487Z,100696.00
2022-08-03T14:39:01.071Z,100697.69
2022-08-03T14:41:31.234Z,100705.19
2022-08-03T14:44:02.531Z,100704.59
2022-08-03T14:46:33.363Z,100702.06
2022-08-03T14:50:33.509Z,100699.34
2022-08-03T14:51:51.467Z,100691.72
2022-08-03T14:54:22.898Z,100690.63
2022-08-03T14:56:51.028Z,100683.97
2022-08-03T14:59:19.506Z,100680.81
2022-08-03T15:02:06.400Z,100695.66
2022-08-03T15:04:35.681Z,100697.06
2022-08-03T15:07:03.511Z,100707.53
2022-08-03T15:09:31.476Z,100702.56
2022-08-03T15:11:59.863Z,100699.00
2022-08-03T15:14:28.510Z,100683.69
2022-08-03T15:17:01.818Z,100685.97
2022-08-03T15:20:03.191Z,100670.06
2022-08-03T15:22:20.680Z,100669.69
2022-08-03T15:24:53.347Z,100682.72
2022-08-03T15:27:21.620Z,100677.28
2022-08-03T15:30:06.813Z,100672.31
2022-08-03T15:32:38.907Z,100674.41
2022-08-03T15:35:07.317Z,100676.16
2022-08-03T15:37:35.821Z,100667.16
2022-08-03T15:40:03.897Z,100672.34
2022-08-03T15:42:33.789Z,100668.91
2022-08-03T15:45:01.663Z,100671.22
2022-08-03T15:47:29.481Z,100664.69
2022-08-03T15:49:58.640Z,100660.56
2022-08-03T15:52:26.485Z,100673.88
2022-08-03T15:54:54.367Z,100661.41
2022-08-03T15:57:22.602Z,100666.44
2022-08-03T15:59:50.699Z,100658.28
2022-08-03T16:02:18.623Z,100662.75
2022-08-03T16:04:46.424Z,100654.94
2022-08-03T16:07:16.335Z,100654.22
2022-08-03T16:09:44.445Z,100652.50
2022-08-03T16:12:16.350Z,100652.34
2022-08-03T16:14:52.500Z,100644.72
2022-08-03T16:17:21.479Z,100647.13
2022-08-03T16:19:49.632Z,100644.50
2022-08-03T16:22:19.573Z,100643.13
2022-08-03T16:24:48.042Z,100646.34
2022-08-03T16:27:36.754Z,100644.25
2022-08-03T16:30:04.424Z,100644.66
2022-08-03T16:32:32.402Z,100639.78
2022-08-03T16:35:00.249Z,100640.19
2022-08-03T16:37:38.512Z,100638.56
2022-08-03T16:40:19.199Z,100639.16
2022-08-03T16:42:47.865Z,100645.75
2022-08-03T16:45:15.857Z,100647.28
2022-08-03T16:47:43.686Z,100641.00
2022-08-03T16:50:18.927Z,100643.84
2022-08-03T16:52:48.969Z,100646.81
2022-08-03T16:55:54.174Z,100645.84
2022-08-03T16:58:06.439Z,100640.41
2022-08-03T17:00:41.590Z,100655.97
2022-08-03T17:03:18.778Z,100650.22
2022-08-03T17:05:50.131Z,100652.56
2022-08-03T17:08:26.900Z,100650.59
2022-08-03T17:10:56.850Z,100647.28
2022-08-03T17:13:39.800Z,100652.03
2022-08-03T17:16:10.435Z,100648.88
2022-08-03T17:18:42.312Z,100654.53
2022-08-03T17:21:16.915Z,100652.09
2022-08-03T17:23:55.881Z,100648.78
2022-08-03T17:26:30.481Z,100651.13
2022-08-03T17:29:11.223Z,100647.97
2022-08-03T17:31:49.119Z,100650.31
2022-08-03T17:34:18.750Z,100653.50
2022-08-03T17:37:03.870Z,100652.22
2022-08-03T17:39:58.693Z,100652.66
2022-08-03T17:42:30.068Z,100657.88
2022-08-03T17:45:02.130Z,100654.16
2022-08-03T17:47:41.242Z,100648.22
2022-08-03T17:50:24.127Z,100649.81
2022-08-03T17:52:59.347Z,100648.84
2022-08-03T17:55:55.276Z,100648.69
2022-08-03T17:58:26.920Z,100654.19
2022-08-03T18:02:00.628Z,100648.00
2022-08-03T18:04:11.041Z,100646.25
2022-08-03T18:06:55.700Z,100651.59
2022-08-03T18:10:03.450Z,100657.06
2022-08-03T18:12:23.816Z,100651.59
2022-08-03T18:15:01.202Z,100655.16
2022-08-03T18:18:02.502Z,100658.91
2022-08-03T18:20:34.089Z,100658.00
2022-08-03T18:23:06.729Z,100665.34
2022-08-03T18:25:45.815Z,100665.16
2022-08-03T18:31:11.563Z,100661.34
2022-08-03T18:34:17.195Z,100658.72
2022-08-03T18:36:31.953Z,100661.50
2022-08-03T18:39:03.197Z,100664.19
2022-08-03T18:41:34.323Z,100668.63
2022-08-03T18:44:06.600Z,100672.03
2022-08-03T18:46:47.319Z,100671.84
2022-08-03T18:49:29.111Z,100674.25
2022-08-03T18:52:03.641Z,100681.22
2022-08-03T18:54:51.791Z,100678.28
2022-08-03T18:57:34.931Z,100679.19
2022-08-03T19:00:14.182Z,100683.72
2022-08-03T19:02:50.088Z,100680.19
2022-08-03T19:05:21.291Z,100685.56
2022-08-03T19:07:58.195Z,100687.31
2022-08-03T19:10:32.459Z,100687.06
2022-08-03T19:13:05.318Z,100685.97
2022-08-03T19:15:51.387Z,100685.25
2022-08-03T19:18:21.543Z,100690.47
2022-08-03T19:20:54.725Z,100689.50
2022-08-03T19:23:25.196Z,100683.13
2022-08-03T19:25:53.690Z,100688.38
2022-08-03T19:28:30.132Z,100694.44
2022-08-03T19:31:02.636Z,100699.88
2022-08-03T19:33:57.611Z,100701.63
2022-08-03T19:36:27.542Z,100704.34
2022-08-03T19:38:57.041Z,100698.81
2022-08-03T19:41:26.048Z,100707.63
2022-08-03T19:44:04.488Z,100713.03
2022-08-03T19:46:43.609Z,100701.09
2022-08-03T19:49:16.045Z,100705.41
2022-08-03T19:52:01.406Z,100708.72
2022-08-03T19:54:45.691Z,100716.50
2022-08-03T19:57:24.191Z,100709.22
2022-08-03T19:59:54.372Z,100712.75
2022-08-03T20:02:27.268Z,100705.91
2022-08-03T20:04:56.946Z,100707.22
2022-08-03T20:07:26.222Z,100715.78
2022-08-03T20:09:56.449Z,100710.66
2022-08-03T20:12:27.502Z,100711.97
2022-08-03T20:14:57.328Z,100713.28
2022-08-03T20:17:56.126Z,100711.03
2022-08-03T20:20:21.061Z,100714.19
2022-08-03T20:22:57.624Z,100714.84
2022-08-03T20:25:38.613Z,100709.19
2022-08-03T20:28:14.318Z,100706.78
2022-08-03T20:30:47.391Z,100704.53
2022-08-03T20:33:18.770Z,100711.25
2022-08-03T20:35:49.295Z,100715.41
2022-08-03T20:38:18.778Z,100720.31
2022-08-03T20:40:48.092Z,100709.84
2022-08-03T20:43:16.562Z,100718.47
2022-08-03T20:45:59.682Z,100710.72
2022-08-03T20:48:37.531Z,100718.50
2022-08-03T20:51:19.597Z,100708.28
2022-08-03T20:54:00.117Z,100709.69
2022-08-03T20:56:33.649Z,100715.53
2022-08-03T20:59:03.397Z,100715.88
2022-08-03T21:01:36.205Z,100713.78
2022-08-03T21:04:09.241Z,100707.88
2022-08-03T21:06:45.596Z,100718.19
2022-08-03T21:09:39.745Z,100707.97
2022-08-03T21:12:17.947Z,100707.41
2022-08-03T21:13:04.111Z,100654.16
2022-08-03T21:14:53.542Z,100716.91
2022-08-03T21:17:40.086Z,100710.03
2022-08-03T21:20:13.034Z,100718.72
2022-08-03T21:22:44.728Z,100719.09
2022-08-03T21:25:16.460Z,100712.31
2022-08-03T21:27:44.936Z,100711.84
2022-08-03T21:30:13.363Z,100713.22
2022-08-03T21:32:46.366Z,100707.22
2022-08-03T21:35:16.145Z,100701.31
2022-08-03T21:37:45.117Z,100705.41
2022-08-03T21:40:15.260Z,100704.00
2022-08-03T21:42:45.075Z,100698.00
2022-08-03T21:45:17.364Z,100703.94
2022-08-03T21:47:46.954Z,100699.47
2022-08-03T21:50:17.555Z,100698.97
2022-08-03T21:52:48.913Z,100702.97
2022-08-03T21:55:18.422Z,100704.28
2022-08-03T21:57:53.351Z,100703.81
2022-08-03T22:00:24.192Z,100715.06
2022-08-03T22:02:55.459Z,100709.03
2022-08-03T22:05:28.880Z,100708.41
2022-08-03T22:08:11.057Z,100711.56
2022-08-03T22:10:39.419Z,100715.44
2022-08-03T22:13:07.639Z,100717.47
2022-08-03T22:15:35.810Z,100717.84
2022-08-03T22:18:04.577Z,100710.88
2022-08-03T22:20:33.773Z,100710.25
2022-08-03T22:23:05.001Z,100706.88
2022-08-03T22:25:35.634Z,100714.41
2022-08-03T22:28:06.736Z,100713.81
2022-08-03T22:30:35.166Z,100714.94
2022-08-03T22:33:05.822Z,100708.91
2022-08-03T22:35:47.377Z,100710.91
2022-08-03T22:38:16.840Z,100712.06
2022-08-03T22:40:45.071Z,100715.13
2022-08-03T22:43:12.900Z,100710.84
2022-08-03T22:46:07.068Z,100713.81
2022-08-03T22:48:41.264Z,100706.91
2022-08-03T22:51:11.537Z,100709.97
2022-08-03T22:53:40.749Z,100713.91
2022-08-03T22:56:09.312Z,100718.72
2022-08-03T22:58:37.274Z,100714.53
2022-08-03T23:01:08.613Z,100715.88
2022-08-03T23:03:58.608Z,100708.91
2022-08-03T23:06:34.545Z,100717.47
2022-08-03T23:09:05.569Z,100708.81
2022-08-03T23:11:36.941Z,100710.91
2022-08-03T23:14:09.926Z,100708.53
2022-08-03T23:16:39.773Z,100708.81
2022-08-03T23:19:16.594Z,100709.09
2022-08-03T23:22:03.016Z,100710.28
2022-08-03T23:24:35.866Z,100705.13
2022-08-03T23:27:05.240Z,100713.41
2022-08-03T23:29:35.526Z,100720.81
2022-08-03T23:32:04.273Z,100712.06
2022-08-03T23:34:50.656Z,100718.59
2022-08-03T23:37:20.923Z,100715.19
2022-08-03T23:39:50.040Z,100719.88
2022-08-03T23:42:19.867Z,100719.19
2022-08-03T23:44:48.340Z,100713.91
2022-08-03T23:47:16.271Z,100714.06
2022-08-03T23:49:44.613Z,100725.94
2022-08-03T23:52:20.256Z,100717.03
2022-08-03T23:55:01.016Z,100714.50
2022-08-03T23:57:38.109Z,100711.00
